sensor_id;sensor_type;location;lat;lon;timestamp;pressure;altitude;pressure_sealevel;temperature;humidity
16664;BME280;8445;51.270;9.434;2023-01-26T00:01:42;100239.50;;;-0.67;75.41
16664;BME280;8445;51.270;9.434;2023-01-26T00:04:09;100242.03;;;-0.64;75.41
16664;BME280;8445;51.270;9.434;2023-01-26T00:06:35;100242.00;;;-0.63;75.36
16664;BME280;8445;51.270;9.434;2023-01-26T00:09:00;100243.72;;;-0.62;75.27
16664;BME280;8445;51.270;9.434;2023-01-26T00:11:27;100238.38;;;-0.54;75.07
16664;BME280;8445;51.270;9.434;2023-01-26T00:13:58;100232.34;;;-0.56;75.30
16664;BME280;8445;51.270;9.434;2023-01-26T00:16:25;100233.31;;;-0.60;75.07
16664;BME280;8445;51.270;9.434;2023-01-26T00:18:51;100236.06;;;-0.69;75.26
16664;BME280;8445;51.270;9.434;2023-01-26T00:21:19;100232.66;;;-0.75;75.19
16664;BME280;8445;51.270;9.434;2023-01-26T00:23:46;100233.56;;;-0.76;75.36
16664;BME280;8445;51.270;9.434;2023-01-26T00:26:17;100222.31;;;-0.78;75.17
16664;BME280;8445;51.270;9.434;2023-01-26T00:28:43;100223.16;;;-0.76;74.94
16664;BME280;8445;51.270;9.434;2023-01-26T00:31:17;100219.69;;;-0.75;75.05
16664;BME280;8445;51.270;9.434;2023-01-26T00:33:43;100219.59;;;-0.70;75.06
16664;BME280;8445;51.270;9.434;2023-01-26T00:36:10;100210.13;;;-0.72;75.48
16664;BME280;8445;51.270;9.434;2023-01-26T00:38:36;100207.63;;;-0.80;75.35
16664;BME280;8445;51.270;9.434;2023-01-26T00:41:01;100205.03;;;-0.79;75.38
16664;BME280;8445;51.270;9.434;2023-01-26T00:43:27;100200.75;;;-0.84;75.60
16664;BME280;8445;51.270;9.434;2023-01-26T00:45:53;100205.97;;;-0.84;75.36
16664;BME280;8445;51.270;9.434;2023-01-26T00:48:20;100195.56;;;-0.84;75.29
16664;BME280;8445;51.270;9.434;2023-01-26T00:50:51;100198.13;;;-0.81;75.34
16664;BME280;8445;51.270;9.434;2023-01-26T00:53:17;100189.44;;;-0.80;75.14
16664;BME280;8445;51.270;9.434;2023-01-26T00:55:44;100187.72;;;-0.80;74.92
16664;BME280;8445;51.270;9.434;2023-01-26T00:58:09;100191.28;;;-0.87;75.03
16664;BME280;8445;51.270;9.434;2023-01-26T01:00:36;100193.97;;;-0.92;75.17
16664;BME280;8445;51.270;9.434;2023-01-26T01:03:04;100191.34;;;-0.90;75.39
16664;BME280;8445;51.270;9.434;2023-01-26T01:05:31;100188.78;;;-0.92;75.42
16664;BME280;8445;51.270;9.434;2023-01-26T01:07:57;100183.59;;;-0.93;75.28
16664;BME280;8445;51.270;9.434;2023-01-26T01:10:23;100187.91;;;-0.92;75.34
16664;BME280;8445;51.270;9.434;2023-01-26T01:12:51;100182.72;;;-0.92;74.92
16664;BME280;8445;51.270;9.434;2023-01-26T01:15:17;100187.03;;;-0.91;75.25
16664;BME280;8445;51.270;9.434;2023-01-26T01:17:42;100187.03;;;-0.91;75.50
16664;BME280;8445;51.270;9.434;2023-01-26T01:20:09;100179.28;;;-0.94;75.13
16664;BME280;8445;51.270;9.434;2023-01-26T01:22:35;100173.28;;;-0.98;75.65
16664;BME280;8445;51.270;9.434;2023-01-26T01:25:01;100171.59;;;-1.00;75.25
16664;BME280;8445;51.270;9.434;2023-01-26T01:27:27;100175.97;;;-1.06;75.62
16664;BME280;8445;51.270;9.434;2023-01-26T01:29:53;100179.50;;;-1.10;75.52
16664;BME280;8445;51.270;9.434;2023-01-26T01:32:19;100177.78;;;-1.11;75.37
16664;BME280;8445;51.270;9.434;2023-01-26T01:34:48;100173.47;;;-1.10;75.29
16664;BME280;8445;51.270;9.434;2023-01-26T01:37:15;100175.19;;;-1.09;75.51
16664;BME280;8445;51.270;9.434;2023-01-26T01:39:40;100169.06;;;-1.07;75.22
16664;BME280;8445;51.270;9.434;2023-01-26T01:42:06;100168.22;;;-1.07;75.23
16664;BME280;8445;51.270;9.434;2023-01-26T01:44:36;100175.09;;;-1.05;75.31
16664;BME280;8445;51.270;9.434;2023-01-26T01:47:05;100165.59;;;-1.06;75.48
16664;BME280;8445;51.270;9.434;2023-01-26T01:49:37;100172.69;;;-1.15;74.98
16664;BME280;8445;51.270;9.434;2023-01-26T01:54:40;100165.09;;;-1.29;75.13
16664;BME280;8445;51.270;9.434;2023-01-26T01:57:11;100166.13;;;-1.40;75.32
16664;BME280;8445;51.270;9.434;2023-01-26T02:00:00;100164.34;;;-1.38;75.37
16664;BME280;8445;51.270;9.434;2023-01-26T02:02:26;100166.00;;;-1.32;74.96
16664;BME280;8445;51.270;9.434;2023-01-26T02:04:56;100166.00;;;-1.30;75.02
16664;BME280;8445;51.270;9.434;2023-01-26T02:07:22;100161.81;;;-1.41;75.12
16664;BME280;8445;51.270;9.434;2023-01-26T02:09:48;100163.56;;;-1.43;75.30
16664;BME280;8445;51.270;9.434;2023-01-26T02:12:35;100158.31;;;-1.40;74.73
16664;BME280;8445;51.270;9.434;2023-01-26T02:15:05;100160.91;;;-1.40;74.52
16664;BME280;8445;51.270;9.434;2023-01-26T02:17:31;100160.03;;;-1.40;74.50
16664;BME280;8445;51.270;9.434;2023-01-26T02:20:21;100153.13;;;-1.41;75.12
16664;BME280;8445;51.270;9.434;2023-01-26T02:22:57;100156.59;;;-1.41;75.05
16664;BME280;8445;51.270;9.434;2023-01-26T02:25:39;100147.94;;;-1.40;74.68
16664;BME280;8445;51.270;9.434;2023-01-26T02:28:06;100145.31;;;-1.37;75.04
16664;BME280;8445;51.270;9.434;2023-01-26T02:30:33;100136.69;;;-1.39;74.71
16664;BME280;8445;51.270;9.434;2023-01-26T02:33:01;100137.56;;;-1.40;74.64
16664;BME280;8445;51.270;9.434;2023-01-26T02:35:27;100140.19;;;-1.43;74.71
16664;BME280;8445;51.270;9.434;2023-01-26T02:37:53;100144.47;;;-1.40;74.54
16664;BME280;8445;51.270;9.434;2023-01-26T02:42:53;100134.09;;;-1.39;74.65
16664;BME280;8445;51.270;9.434;2023-01-26T02:45:20;100133.25;;;-1.41;74.73
16664;BME280;8445;51.270;9.434;2023-01-26T02:47:45;100135.06;;;-1.46;74.49
16664;BME280;8445;51.270;9.434;2023-01-26T02:50:11;100134.22;;;-1.48;74.67
16664;BME280;8445;51.270;9.434;2023-01-26T02:52:38;100134.28;;;-1.53;74.79
16664;BME280;8445;51.270;9.434;2023-01-26T02:55:08;100126.44;;;-1.48;74.76
16664;BME280;8445;51.270;9.434;2023-01-26T02:58:02;100124.66;;;-1.46;74.73
16664;BME280;8445;51.270;9.434;2023-01-26T03:00:33;100124.63;;;-1.43;74.73
16664;BME280;8445;51.270;9.434;2023-01-26T03:03:12;100122.16;;;-1.52;74.52
16664;BME280;8445;51.270;9.434;2023-01-26T03:05:38;100118.78;;;-1.57;74.82
16664;BME280;8445;51.270;9.434;2023-01-26T03:08:04;100117.00;;;-1.55;74.90
16664;BME280;8445;51.270;9.434;2023-01-26T03:10:34;100117.00;;;-1.55;74.80
16664;BME280;8445;51.270;9.434;2023-01-26T03:12:59;100113.53;;;-1.54;74.86
16664;BME280;8445;51.270;9.434;2023-01-26T03:15:25;100110.84;;;-1.48;74.78
16664;BME280;8445;51.270;9.434;2023-01-26T03:18:13;100109.06;;;-1.43;74.81
16664;BME280;8445;51.270;9.434;2023-01-26T03:21:02;100110.94;;;-1.54;74.66
16664;BME280;8445;51.270;9.434;2023-01-26T03:23:46;100098.94;;;-1.61;74.74
16664;BME280;8445;51.270;9.434;2023-01-26T03:26:32;100107.72;;;-1.72;74.25
16664;BME280;8445;51.270;9.434;2023-01-26T03:29:17;100101.78;;;-1.79;74.77
16664;BME280;8445;51.270;9.434;2023-01-26T03:31:43;100099.97;;;-1.75;74.37
16664;BME280;8445;51.270;9.434;2023-01-26T03:34:09;100093.88;;;-1.71;74.82
16664;BME280;8445;51.270;9.434;2023-01-26T03:36:35;100099.94;;;-1.72;74.37
16664;BME280;8445;51.270;9.434;2023-01-26T03:39:05;100103.44;;;-1.74;74.27
16664;BME280;8445;51.270;9.434;2023-01-26T03:41:32;100099.22;;;-1.80;74.45
16664;BME280;8445;51.270;9.434;2023-01-26T03:44:16;100098.34;;;-1.81;74.45
16664;BME280;8445;51.270;9.434;2023-01-26T03:47:00;100104.44;;;-1.83;74.55
16664;BME280;8445;51.270;9.434;2023-01-26T03:49:44;100097.47;;;-1.78;74.26
16664;BME280;8445;51.270;9.434;2023-01-26T03:52:30;100098.34;;;-1.81;73.91
16664;BME280;8445;51.270;9.434;2023-01-26T03:55:14;100096.63;;;-1.82;74.05
16664;BME280;8445;51.270;9.434;2023-01-26T03:57:59;100100.94;;;-1.81;74.29
16664;BME280;8445;51.270;9.434;2023-01-26T04:00:24;100097.47;;;-1.78;73.93
16664;BME280;8445;51.270;9.434;2023-01-26T04:02:50;100096.59;;;-1.77;74.08
16664;BME280;8445;51.270;9.434;2023-01-26T04:05:34;100100.97;;;-1.82;74.42
16664;BME280;8445;51.270;9.434;2023-01-26T04:08:18;100099.19;;;-1.77;74.63
16664;BME280;8445;51.270;9.434;2023-01-26T04:10:53;100104.28;;;-1.74;74.44
16664;BME280;8445;51.270;9.434;2023-01-26T04:13:23;100094.75;;;-1.72;74.02
16664;BME280;8445;51.270;9.434;2023-01-26T04:16:10;100092.16;;;-1.72;74.13
16664;BME280;8445;51.270;9.434;2023-01-26T04:18:54;100099.94;;;-1.70;74.20
16664;BME280;8445;51.270;9.434;2023-01-26T04:21:38;100098.16;;;-1.67;74.05
16664;BME280;8445;51.270;9.434;2023-01-26T04:24:16;100098.19;;;-1.68;74.36
16664;BME280;8445;51.270;9.434;2023-01-26T04:26:42;100095.50;;;-1.64;74.23
16664;BME280;8445;51.270;9.434;2023-01-26T04:29:14;100097.22;;;-1.62;73.98
16664;BME280;8445;51.270;9.434;2023-01-26T04:31:41;100089.38;;;-1.58;74.39
16664;BME280;8445;51.270;9.434;2023-01-26T04:34:13;100087.63;;;-1.56;74.47
16664;BME280;8445;51.270;9.434;2023-01-26T04:36:40;100081.56;;;-1.56;74.48
16664;BME280;8445;51.270;9.434;2023-01-26T04:39:06;100074.63;;;-1.54;74.16
16664;BME280;8445;51.270;9.434;2023-01-26T04:41:32;100082.41;;;-1.53;74.50
16664;BME280;8445;51.270;9.434;2023-01-26T04:44:04;100078.97;;;-1.55;74.04
16664;BME280;8445;51.270;9.434;2023-01-26T04:46:30;100081.47;;;-1.50;74.69
16664;BME280;8445;51.270;9.434;2023-01-26T04:48:57;100083.16;;;-1.46;74.21
16664;BME280;8445;51.270;9.434;2023-01-26T04:51:23;100089.22;;;-1.47;74.50
16664;BME280;8445;51.270;9.434;2023-01-26T04:53:49;100077.09;;;-1.45;74.63
16664;BME280;8445;51.270;9.434;2023-01-26T04:56:33;100077.03;;;-1.42;74.70
16664;BME280;8445;51.270;9.434;2023-01-26T04:59:03;100070.91;;;-1.38;74.85
16664;BME280;8445;51.270;9.434;2023-01-26T05:01:30;100063.91;;;-1.32;74.55
16664;BME280;8445;51.270;9.434;2023-01-26T05:04:00;100058.72;;;-1.34;74.78
16664;BME280;8445;51.270;9.434;2023-01-26T05:06:27;100063.97;;;-1.37;74.77
16664;BME280;8445;51.270;9.434;2023-01-26T05:08:54;100058.88;;;-1.42;74.79
16664;BME280;8445;51.270;9.434;2023-01-26T05:11:20;100064.94;;;-1.44;75.01
16664;BME280;8445;51.270;9.434;2023-01-26T05:13:55;100055.53;;;-1.48;74.89
16664;BME280;8445;51.270;9.434;2023-01-26T05:16:40;100069.44;;;-1.53;75.10
16664;BME280;8445;51.270;9.434;2023-01-26T05:19:19;100066.88;;;-1.56;75.17
16664;BME280;8445;51.270;9.434;2023-01-26T05:22:15;100069.47;;;-1.57;75.40
16664;BME280;8445;51.270;9.434;2023-01-26T05:24:58;100063.41;;;-1.55;75.25
16664;BME280;8445;51.270;9.434;2023-01-26T05:27:31;100065.06;;;-1.51;74.89
16664;BME280;8445;51.270;9.434;2023-01-26T05:29:58;100056.31;;;-1.46;75.04
16664;BME280;8445;51.270;9.434;2023-01-26T05:32:26;100058.13;;;-1.48;74.92
16664;BME280;8445;51.270;9.434;2023-01-26T05:34:52;100058.09;;;-1.47;74.67
16664;BME280;8445;51.270;9.434;2023-01-26T05:37:18;100053.78;;;-1.48;74.83
16664;BME280;8445;51.270;9.434;2023-01-26T05:39:44;100056.31;;;-1.45;74.74
16664;BME280;8445;51.270;9.434;2023-01-26T05:42:11;100065.81;;;-1.44;74.83
16664;BME280;8445;51.270;9.434;2023-01-26T05:44:57;100053.72;;;-1.45;74.55
16664;BME280;8445;51.270;9.434;2023-01-26T05:47:22;100062.25;;;-1.37;74.58
16664;BME280;8445;51.270;9.434;2023-01-26T05:49:49;100062.16;;;-1.30;75.03
16664;BME280;8445;51.270;9.434;2023-01-26T05:52:20;100054.28;;;-1.24;74.60
16664;BME280;8445;51.270;9.434;2023-01-26T05:54:47;100053.38;;;-1.23;74.60
16664;BME280;8445;51.270;9.434;2023-01-26T05:57:13;100055.94;;;-1.22;74.60
16664;BME280;8445;51.270;9.434;2023-01-26T05:59:46;100059.38;;;-1.18;74.64
16664;BME280;8445;51.270;9.434;2023-01-26T06:02:11;100055.78;;;-1.12;74.70
16664;BME280;8445;51.270;9.434;2023-01-26T06:04:37;100059.19;;;-1.07;75.01
16664;BME280;8445;51.270;9.434;2023-01-26T06:07:03;100052.16;;;-1.03;74.79
16664;BME280;8445;51.270;9.434;2023-01-26T06:09:35;100047.75;;;-0.98;74.43
16664;BME280;8445;51.270;9.434;2023-01-26T06:12:20;100059.81;;;-0.94;74.63
16664;BME280;8445;51.270;9.434;2023-01-26T06:14:55;100063.25;;;-0.92;74.62
16664;BME280;8445;51.270;9.434;2023-01-26T06:17:21;100061.47;;;-0.90;74.76
16664;BME280;8445;51.270;9.434;2023-01-26T06:19:53;100066.66;;;-0.88;74.91
16664;BME280;8445;51.270;9.434;2023-01-26T06:22:19;100067.44;;;-0.85;74.85
16664;BME280;8445;51.270;9.434;2023-01-26T06:24:47;100073.47;;;-0.83;74.63
16664;BME280;8445;51.270;9.434;2023-01-26T06:27:15;100064.81;;;-0.83;74.34
16664;BME280;8445;51.270;9.434;2023-01-26T06:29:42;100066.50;;;-0.81;74.62
16664;BME280;8445;51.270;9.434;2023-01-26T06:32:10;100062.16;;;-0.80;74.62
16664;BME280;8445;51.270;9.434;2023-01-26T06:34:36;100070.00;;;-0.82;74.42
16664;BME280;8445;51.270;9.434;2023-01-26T06:37:02;100074.38;;;-0.85;74.56
16664;BME280;8445;51.270;9.434;2023-01-26T06:39:32;100070.88;;;-0.83;74.75
16664;BME280;8445;51.270;9.434;2023-01-26T06:41:59;100078.66;;;-0.83;74.67
16664;BME280;8445;51.270;9.434;2023-01-26T06:44:24;100081.31;;;-0.87;74.58
16664;BME280;8445;51.270;9.434;2023-01-26T06:46:50;100082.25;;;-0.88;74.98
16664;BME280;8445;51.270;9.434;2023-01-26T06:49:15;100077.00;;;-0.87;74.81
16664;BME280;8445;51.270;9.434;2023-01-26T06:51:44;100084.84;;;-0.90;74.66
16664;BME280;8445;51.270;9.434;2023-01-26T06:54:11;100078.81;;;-0.92;75.21
16664;BME280;8445;51.270;9.434;2023-01-26T06:56:54;100078.03;;;-0.97;75.25
16664;BME280;8445;51.270;9.434;2023-01-26T06:59:38;100084.13;;;-0.98;74.98
16664;BME280;8445;51.270;9.434;2023-01-26T07:02:23;100077.22;;;-0.99;75.03
16664;BME280;8445;51.270;9.434;2023-01-26T07:04:49;100075.44;;;-0.97;75.20
16664;BME280;8445;51.270;9.434;2023-01-26T07:07:14;100071.97;;;-0.96;75.32
16664;BME280;8445;51.270;9.434;2023-01-26T07:09:40;100085.78;;;-0.94;75.16
16664;BME280;8445;51.270;9.434;2023-01-26T07:12:05;100077.88;;;-0.88;75.38
16664;BME280;8445;51.270;9.434;2023-01-26T07:14:31;100081.22;;;-0.81;75.75
16664;BME280;8445;51.270;9.434;2023-01-26T07:16:57;100090.66;;;-0.76;75.02
16664;BME280;8445;51.270;9.434;2023-01-26T07:19:22;100091.50;;;-0.75;75.56
16664;BME280;8445;51.270;9.434;2023-01-26T07:21:48;100097.63;;;-0.78;75.47
16664;BME280;8445;51.270;9.434;2023-01-26T07:24:13;100094.31;;;-0.86;75.51
16664;BME280;8445;51.270;9.434;2023-01-26T07:26:39;100090.09;;;-0.93;75.99
16664;BME280;8445;51.270;9.434;2023-01-26T07:29:04;100096.16;;;-0.94;75.80
16664;BME280;8445;51.270;9.434;2023-01-26T07:31:30;100094.44;;;-0.95;75.42
16664;BME280;8445;51.270;9.434;2023-01-26T07:33:55;100097.94;;;-0.96;75.94
16664;BME280;8445;51.270;9.434;2023-01-26T07:36:21;100104.06;;;-1.00;76.05
16664;BME280;8445;51.270;9.434;2023-01-26T07:38:46;100100.69;;;-1.06;76.31
16664;BME280;8445;51.270;9.434;2023-01-26T07:41:12;100112.72;;;-1.01;75.98
16664;BME280;8445;51.270;9.434;2023-01-26T07:43:38;100105.91;;;-1.07;76.53
16664;BME280;8445;51.270;9.434;2023-01-26T07:46:07;100110.28;;;-1.11;76.14
16664;BME280;8445;51.270;9.434;2023-01-26T07:48:34;100112.94;;;-1.14;76.61
16664;BME280;8445;51.270;9.434;2023-01-26T07:51:01;100112.03;;;-1.13;76.82
16664;BME280;8445;51.270;9.434;2023-01-26T07:53:28;100105.13;;;-1.12;76.57
16664;BME280;8445;51.270;9.434;2023-01-26T07:56:14;100106.00;;;-1.13;77.14
16664;BME280;8445;51.270;9.434;2023-01-26T07:58:40;100107.78;;;-1.15;76.97
16664;BME280;8445;51.270;9.434;2023-01-26T08:01:12;100108.63;;;-1.15;77.02
16664;BME280;8445;51.270;9.434;2023-01-26T08:03:38;100113.75;;;-1.12;76.74
16664;BME280;8445;51.270;9.434;2023-01-26T08:06:05;100112.81;;;-1.06;76.96
16664;BME280;8445;51.270;9.434;2023-01-26T08:08:31;100102.38;;;-1.03;76.82
16664;BME280;8445;51.270;9.434;2023-01-26T08:10:58;100104.84;;;-0.95;76.75
16664;BME280;8445;51.270;9.434;2023-01-26T08:13:26;100102.16;;;-0.89;76.70
16664;BME280;8445;51.270;9.434;2023-01-26T08:15:51;100113.25;;;-0.81;76.59
16664;BME280;8445;51.270;9.434;2023-01-26T08:18:17;100109.56;;;-0.67;76.70
16664;BME280;8445;51.270;9.434;2023-01-26T08:20:49;100109.44;;;-0.60;76.58
16664;BME280;8445;51.270;9.434;2023-01-26T08:23:14;100110.19;;;-0.54;77.24
16664;BME280;8445;51.270;9.434;2023-01-26T08:25:40;100105.63;;;-0.41;77.36
16664;BME280;8445;51.270;9.434;2023-01-26T08:28:05;100110.69;;;-0.35;77.44
16664;BME280;8445;51.270;9.434;2023-01-26T08:30:30;100115.06;;;-0.36;77.38
16664;BME280;8445;51.270;9.434;2023-01-26T08:32:56;100114.13;;;-0.33;77.40
16664;BME280;8445;51.270;9.434;2023-01-26T08:35:22;100121.81;;;-0.27;77.41
16664;BME280;8445;51.270;9.434;2023-01-26T08:37:47;100111.38;;;-0.25;77.09
16664;BME280;8445;51.270;9.434;2023-01-26T08:40:13;100118.28;;;-0.24;77.21
16664;BME280;8445;51.270;9.434;2023-01-26T08:42:38;100107.94;;;-0.26;76.74
16664;BME280;8445;51.270;9.434;2023-01-26T08:45:04;100116.66;;;-0.30;77.05
16664;BME280;8445;51.270;9.434;2023-01-26T08:47:29;100103.72;;;-0.33;77.21
16664;BME280;8445;51.270;9.434;2023-01-26T08:49:55;100112.34;;;-0.31;77.62
16664;BME280;8445;51.270;9.434;2023-01-26T08:52:20;100113.13;;;-0.26;77.03
16664;BME280;8445;51.270;9.434;2023-01-26T08:54:46;100121.66;;;-0.19;78.03
16664;BME280;8445;51.270;9.434;2023-01-26T08:57:11;100115.44;;;-0.10;77.66
16664;BME280;8445;51.270;9.434;2023-01-26T08:59:36;100107.34;;;0.02;77.87
16664;BME280;8445;51.270;9.434;2023-01-26T09:02:02;100113.00;;;0.23;78.28
16664;BME280;8445;51.270;9.434;2023-01-26T09:04:27;100090.97;;;0.39;78.45
16664;BME280;8445;51.270;9.434;2023-01-26T09:06:53;100104.56;;;0.52;78.33
16664;BME280;8445;51.270;9.434;2023-01-26T09:09:18;100104.22;;;0.66;78.56
16664;BME280;8445;51.270;9.434;2023-01-26T09:11:44;100114.28;;;0.82;78.21
16664;BME280;8445;51.270;9.434;2023-01-26T09:14:09;100104.75;;;0.81;77.91
16664;BME280;8445;51.270;9.434;2023-01-26T09:16:34;100104.81;;;0.79;78.03
16664;BME280;8445;51.270;9.434;2023-01-26T09:19:00;100112.56;;;0.82;78.31
16664;BME280;8445;51.270;9.434;2023-01-26T09:21:25;100104.47;;;0.92;78.41
16664;BME280;8445;51.270;9.434;2023-01-26T09:23:51;100108.72;;;0.97;79.30
16664;BME280;8445;51.270;9.434;2023-01-26T09:26:17;100100.59;;;1.10;79.57
16664;BME280;8445;51.270;9.434;2023-01-26T09:28:42;100096.72;;;1.25;79.73
16664;BME280;8445;51.270;9.434;2023-01-26T09:31:09;100102.38;;;1.41;79.80
16664;BME280;8445;51.270;9.434;2023-01-26T09:33:36;100104.50;;;1.59;79.42
16664;BME280;8445;51.270;9.434;2023-01-26T09:36:06;100100.69;;;1.73;79.40
16664;BME280;8445;51.270;9.434;2023-01-26T09:38:32;100103.09;;;1.79;79.33
16664;BME280;8445;51.270;9.434;2023-01-26T09:43:39;100110.75;;;1.85;78.80
16664;BME280;8445;51.270;9.434;2023-01-26T09:46:42;100110.47;;;1.96;78.81
16664;BME280;8445;51.270;9.434;2023-01-26T09:49:27;100113.66;;;2.06;78.49
16664;BME280;8445;51.270;9.434;2023-01-26T09:52:02;100114.38;;;2.11;78.42
16664;BME280;8445;51.270;9.434;2023-01-26T09:56:54;100118.88;;;2.06;77.96
16664;BME280;8445;51.270;9.434;2023-01-26T09:59:31;100117.97;;;2.07;77.67
16664;BME280;8445;51.270;9.434;2023-01-26T10:05:01;100109.50;;;1.99;76.90
16664;BME280;8445;51.270;9.434;2023-01-26T10:07:29;100104.50;;;1.91;77.29
16664;BME280;8445;51.270;9.434;2023-01-26T10:09:54;100102.03;;;1.86;77.17
16664;BME280;8445;51.270;9.434;2023-01-26T10:12:34;100101.94;;;1.89;76.91
16664;BME280;8445;51.270;9.434;2023-01-26T10:15:04;100095.09;;;1.85;76.97
16664;BME280;8445;51.270;9.434;2023-01-26T10:17:35;100102.75;;;1.91;77.79
16664;BME280;8445;51.270;9.434;2023-01-26T10:20:07;100098.25;;;1.97;76.93
16664;BME280;8445;51.270;9.434;2023-01-26T10:22:39;100102.00;;;1.88;76.23
16664;BME280;8445;51.270;9.434;2023-01-26T10:25:37;100094.41;;;1.78;76.32
16664;BME280;8445;51.270;9.434;2023-01-26T10:28:18;100098.69;;;1.81;77.00
16664;BME280;8445;51.270;9.434;2023-01-26T10:30:46;100092.94;;;1.70;77.25
16664;BME280;8445;51.270;9.434;2023-01-26T10:33:30;100086.13;;;1.64;76.67
16664;BME280;8445;51.270;9.434;2023-01-26T10:36:01;100079.28;;;1.60;77.15
16664;BME280;8445;51.270;9.434;2023-01-26T10:38:28;100081.13;;;1.56;76.59
16664;BME280;8445;51.270;9.434;2023-01-26T10:43:39;100071.50;;;1.58;76.87
16664;BME280;8445;51.270;9.434;2023-01-26T10:46:41;100080.91;;;1.64;76.41
16664;BME280;8445;51.270;9.434;2023-01-26T10:51:40;100079.91;;;1.70;76.49
16664;BME280;8445;51.270;9.434;2023-01-26T10:54:19;100076.47;;;1.68;76.33
16664;BME280;8445;51.270;9.434;2023-01-26T10:56:46;100085.34;;;1.60;76.50
16664;BME280;8445;51.270;9.434;2023-01-26T10:59:33;100068.03;;;1.58;76.27
16664;BME280;8445;51.270;9.434;2023-01-26T11:02:02;100063.03;;;1.50;75.94
16664;BME280;8445;51.270;9.434;2023-01-26T11:07:35;100067.66;;;1.40;76.19
16664;BME280;8445;51.270;9.434;2023-01-26T11:15:43;100050.81;;;1.52;76.89
16664;BME280;8445;51.270;9.434;2023-01-26T11:18:32;100050.38;;;1.68;77.18
16664;BME280;8445;51.270;9.434;2023-01-26T11:21:11;100050.63;;;1.90;77.12
16664;BME280;8445;51.270;9.434;2023-01-26T11:23:55;100050.47;;;2.25;76.69
16664;BME280;8445;51.270;9.434;2023-01-26T11:39:54;100019.41;;;3.47;74.32
16664;BME280;8445;51.270;9.434;2023-01-26T11:42:31;100012.66;;;3.16;75.41
16664;BME280;8445;51.270;9.434;2023-01-26T11:50:56;100004.63;;;3.46;79.92
16664;BME280;8445;51.270;9.434;2023-01-26T11:53:30;99999.13;;;3.77;79.65
16664;BME280;8445;51.270;9.434;2023-01-26T11:58:53;99984.75;;;3.88;76.48
16664;BME280;8445;51.270;9.434;2023-01-26T12:01:37;99975.38;;;4.04;76.99
16664;BME280;8445;51.270;9.434;2023-01-26T12:04:05;99982.81;;;4.15;77.58
16664;BME280;8445;51.270;9.434;2023-01-26T12:06:36;99974.16;;;4.13;76.43
16664;BME280;8445;51.270;9.434;2023-01-26T12:09:22;99979.41;;;4.13;75.67
16664;BME280;8445;51.270;9.434;2023-01-26T12:12:38;99985.81;;;4.06;75.28
16664;BME280;8445;51.270;9.434;2023-01-26T12:14:51;99972.41;;;3.91;75.40
16664;BME280;8445;51.270;9.434;2023-01-26T12:26:01;99961.69;;;3.51;77.48
16664;BME280;8445;51.270;9.434;2023-01-26T12:28:36;99960.25;;;3.66;78.16
16664;BME280;8445;51.270;9.434;2023-01-26T12:33:51;99964.75;;;3.39;77.67
16664;BME280;8445;51.270;9.434;2023-01-26T12:36:24;99964.88;;;3.12;77.43
16664;BME280;8445;51.270;9.434;2023-01-26T12:39:07;99950.91;;;2.88;77.11
16664;BME280;8445;51.270;9.434;2023-01-26T12:49:58;99945.56;;;2.91;78.01
16664;BME280;8445;51.270;9.434;2023-01-26T12:55:04;99933.66;;;3.31;77.33
16664;BME280;8445;51.270;9.434;2023-01-26T12:58:02;99932.91;;;3.51;77.59
16664;BME280;8445;51.270;9.434;2023-01-26T13:00:32;99924.13;;;3.76;77.81
16664;BME280;8445;51.270;9.434;2023-01-26T13:03:20;99933.03;;;3.94;76.40
16664;BME280;8445;51.270;9.434;2023-01-26T13:05:59;99933.50;;;4.04;75.90
16664;BME280;8445;51.270;9.434;2023-01-26T13:10:54;99933.56;;;4.03;75.12
16664;BME280;8445;51.270;9.434;2023-01-26T13:13:28;99939.84;;;3.98;75.19
16664;BME280;8445;51.270;9.434;2023-01-26T13:18:48;99947.50;;;3.81;73.56
16664;BME280;8445;51.270;9.434;2023-01-26T13:21:48;99935.19;;;3.61;74.09
16664;BME280;8445;51.270;9.434;2023-01-26T13:26:45;99934.34;;;3.13;74.39
16664;BME280;8445;51.270;9.434;2023-01-26T13:31:53;99945.78;;;2.85;74.83
16664;BME280;8445;51.270;9.434;2023-01-26T13:34:24;99948.50;;;2.81;75.12
16664;BME280;8445;51.270;9.434;2023-01-26T13:36:51;99945.03;;;2.81;75.43
16664;BME280;8445;51.270;9.434;2023-01-26T13:39:31;99939.16;;;2.74;74.86
16664;BME280;8445;51.270;9.434;2023-01-26T13:41:59;99947.00;;;2.74;75.13
16664;BME280;8445;51.270;9.434;2023-01-26T13:44:38;99940.88;;;2.75;74.31
16664;BME280;8445;51.270;9.434;2023-01-26T13:47:11;99947.00;;;2.74;74.46
16664;BME280;8445;51.270;9.434;2023-01-26T13:49:41;99947.81;;;2.76;74.66
16664;BME280;8445;51.270;9.434;2023-01-26T13:52:21;99939.06;;;2.77;74.95
16664;BME280;8445;51.270;9.434;2023-01-26T13:54:49;99949.72;;;2.71;74.49
16664;BME280;8445;51.270;9.434;2023-01-26T13:57:26;99947.31;;;2.65;74.13
16664;BME280;8445;51.270;9.434;2023-01-26T13:59:54;99948.16;;;2.65;74.21
16664;BME280;8445;51.270;9.434;2023-01-26T14:02:31;99949.34;;;2.57;74.73
16664;BME280;8445;51.270;9.434;2023-01-26T14:04:58;99955.28;;;2.35;74.30
16664;BME280;8445;51.270;9.434;2023-01-26T14:09:52;99953.84;;;1.98;75.30
16664;BME280;8445;51.270;9.434;2023-01-26T14:14:57;99952.75;;;1.76;75.98
16664;BME280;8445;51.270;9.434;2023-01-26T14:17:31;99946.88;;;1.70;75.77
16664;BME280;8445;51.270;9.434;2023-01-26T14:19:58;99948.75;;;1.65;76.14
16664;BME280;8445;51.270;9.434;2023-01-26T14:22:27;99944.28;;;1.68;76.18
16664;BME280;8445;51.270;9.434;2023-01-26T14:24:53;99944.34;;;1.67;75.77
16664;BME280;8445;51.270;9.434;2023-01-26T14:27:36;99951.41;;;1.63;76.11
16664;BME280;8445;51.270;9.434;2023-01-26T14:30:26;99947.41;;;1.51;76.84
16664;BME280;8445;51.270;9.434;2023-01-26T14:33:02;99945.06;;;1.42;76.35
16664;BME280;8445;51.270;9.434;2023-01-26T14:35:34;99950.53;;;1.32;76.41
16664;BME280;8445;51.270;9.434;2023-01-26T14:40:35;99940.03;;;1.36;76.12
16664;BME280;8445;51.270;9.434;2023-01-26T14:43:04;99940.81;;;1.39;76.20
16664;BME280;8445;51.270;9.434;2023-01-26T14:45:34;99944.16;;;1.44;75.63
16664;BME280;8445;51.270;9.434;2023-01-26T14:48:06;99944.91;;;1.48;75.83
16664;BME280;8445;51.270;9.434;2023-01-26T14:50:36;99948.41;;;1.47;75.39
16664;BME280;8445;51.270;9.434;2023-01-26T14:53:03;99946.78;;;1.43;75.79
16664;BME280;8445;51.270;9.434;2023-01-26T14:55:33;99945.66;;;1.52;75.54